Airfield :
LOGIN :

Register | Disclaimer

   EN    FR    IT 

 










Legend :    VFR   Marginal VFR   IFR   Intensive IFR   Very Intensive IFR
Visi :
Ceiling :
>= 8 km
>= 3000ft
5 to 8 km
1000 to 3000 ft
1500m to 5 km
500 to 1000 ft
800 to 1500m
200 to 500 ft
< 800m
< 200 ft
Symbols :   Thunderstorms  Fog  Heavy snow  Heavy precipitations  Wind > 20 kt
SIGMETs :     Misc.  Thunderstorms  Icing  Turbulence  Mountain Waves  Volcanic Ashes






- Airport Elevation : 616 ft
- IATA code : PUF


LFBP - Pau

CURRENT METAR :
  • 122100Z AUTO 24004KT 9999 FEW044 OVC058 09/08 Q1008 TEMPO 4000 -RA BKN012 BKN020TCU

EXPIRED METARs :
  • 122030Z AUTO 23005KT 9999 FEW047 BKN066 09/08 Q1008 TEMPO 4000 -RA BKN012 BKN020TCU
  • 122000Z AUTO 24003KT 9999 FEW026 BKN058 BKN072 09/08 Q1008 TEMPO 4000 SHRA BKN012 BKN020TCU
  • 121930Z AUTO 22004KT 9999 FEW043 BKN074 BKN092 09/08 Q1008 TEMPO 4000 SHRA BKN012 BKN020TCU
  • 121900Z AUTO 23004KT 9999 FEW022 BKN048 OVC080 09/08 Q1008 TEMPO 4000 SHRA BKN012 BKN020TCU
  • 121830Z AUTO 22006KT 9999 FEW024 BKN049 09/08 Q1009 TEMPO 4000 SHRA BKN012 BKN020TCU

TAF TAF LFBP
Valid from the 12 at 18:00 until the 13 at 18:00 UTC


121700Z 1218/1318 24008KT 9999 BKN020
PROB40
TEMPO 1218/1222 4000 SHRA BKN012 BKN020TCU
BECMG 1222/1224 VRB03KT
PROB30
TEMPO 1222/1307 4000 -RA OVC010
PROB30
TEMPO 1312/1315 4000 SHRA BKN020TCU
BECMG 1315/1317 24008KT



MET'MAP, your aeronautical weather chart ! - Copyright ORBIFLY December 2007 - Disclaimer

ORBIFLY MET'MAP TEAM :

Programming & Development : Alexandra Zaïnal
Concept & Development : Baudouin d'Aumeries
Co-Development & Prog : Marc-Olivier Méhu
Technical & hardware support : Manuel Goepfert

Contact : metmap@orbifly.com




SOURCES & CREDITS :

   NOAA